createdAt,value
2017-10-16T00:00:10.054Z,1013.16
2017-10-16T00:01:09.984Z,1013.14
2017-10-16T00:02:09.905Z,1013.17
2017-10-16T00:03:09.815Z,1013.16
2017-10-16T00:04:09.740Z,1013.17
2017-10-16T00:05:09.655Z,1013.18
2017-10-16T00:06:09.576Z,1013.15
2017-10-16T00:07:09.490Z,1013.16
2017-10-16T00:08:09.416Z,1013.18
2017-10-16T00:09:09.338Z,1013.14
2017-10-16T00:10:09.249Z,1013.16
2017-10-16T00:11:09.179Z,1013.13
2017-10-16T00:12:09.095Z,1013.12
2017-10-16T00:13:09.002Z,1013.16
2017-10-16T00:14:08.923Z,1013.20
2017-10-16T00:15:08.845Z,1013.16
2017-10-16T00:16:08.766Z,1013.14
2017-10-16T00:17:08.682Z,1013.16
2017-10-16T00:18:08.603Z,1013.11
2017-10-16T00:19:08.525Z,1013.10
2017-10-16T00:20:08.441Z,1013.11
2017-10-16T00:21:08.360Z,1013.16
2017-10-16T00:22:08.281Z,1013.14
2017-10-16T00:23:08.196Z,1013.18
2017-10-16T00:24:08.120Z,1013.17
2017-10-16T00:25:08.038Z,1013.18
2017-10-16T00:26:07.992Z,1013.18
2017-10-16T00:27:07.881Z,1013.20
2017-10-16T00:28:07.800Z,1013.20
2017-10-16T00:29:07.712Z,1013.21
2017-10-16T00:30:07.638Z,1013.19
2017-10-16T00:31:07.554Z,1013.21
2017-10-16T00:32:07.490Z,1013.18
2017-10-16T00:33:07.406Z,1013.19
2017-10-16T00:34:07.314Z,1013.16
2017-10-16T00:35:07.238Z,1013.17
2017-10-16T00:36:07.146Z,1013.15
2017-10-16T00:37:07.065Z,1013.17
2017-10-16T00:38:06.991Z,1013.14
2017-10-16T00:39:06.909Z,1013.13
2017-10-16T00:40:06.845Z,1013.08
2017-10-16T00:41:06.746Z,1013.06
2017-10-16T00:42:06.665Z,1013.09
2017-10-16T00:43:06.583Z,1013.09
2017-10-16T00:44:06.496Z,1013.12
2017-10-16T00:45:06.419Z,1013.15
2017-10-16T00:46:06.339Z,1013.13
2017-10-16T00:47:06.258Z,1013.15
2017-10-16T00:48:06.179Z,1013.11
2017-10-16T00:49:06.094Z,1013.09
2017-10-16T00:50:06.014Z,1013.11
2017-10-16T00:51:05.932Z,1013.09
2017-10-16T00:52:05.857Z,1013.06
2017-10-16T00:53:05.780Z,1013.09
2017-10-16T00:54:05.688Z,1013.09
2017-10-16T00:55:05.610Z,1013.07
2017-10-16T00:56:05.526Z,1013.07
2017-10-16T00:57:05.449Z,1013.04
2017-10-16T00:58:05.365Z,1013.04
2017-10-16T00:59:05.286Z,1013.07
2017-10-16T01:00:05.232Z,1013.05
2017-10-16T01:01:05.134Z,1013.05
2017-10-16T01:02:05.043Z,1012.98
2017-10-16T01:03:04.971Z,1013.05
2017-10-16T01:04:04.878Z,1013.00
2017-10-16T01:05:04.803Z,1012.93
2017-10-16T01:06:04.718Z,1012.89
2017-10-16T01:07:04.661Z,1012.88
2017-10-16T01:08:04.563Z,1012.88
2017-10-16T01:09:04.477Z,1012.89
2017-10-16T01:10:04.398Z,1012.86
2017-10-16T01:11:04.307Z,1012.91
2017-10-16T01:12:04.232Z,1012.90
2017-10-16T01:13:04.149Z,1012.94
2017-10-16T01:14:04.077Z,1012.87
2017-10-16T01:15:03.988Z,1012.88
2017-10-16T01:16:03.910Z,1012.91
2017-10-16T01:17:03.825Z,1012.89
2017-10-16T01:18:03.740Z,1012.86
2017-10-16T01:19:03.663Z,1012.91
2017-10-16T01:20:03.586Z,1012.88
2017-10-16T01:21:03.505Z,1012.84
2017-10-16T01:22:03.416Z,1012.85
2017-10-16T01:23:03.347Z,1012.84
2017-10-16T01:24:03.257Z,1012.85
2017-10-16T01:25:03.175Z,1012.84
2017-10-16T01:26:03.097Z,1012.85
2017-10-16T01:27:03.009Z,1012.82
2017-10-16T01:28:02.947Z,1012.86
2017-10-16T01:29:02.881Z,1012.81
2017-10-16T01:30:02.780Z,1012.84
2017-10-16T01:31:02.695Z,1012.85
2017-10-16T01:32:02.601Z,1012.85
2017-10-16T01:33:02.524Z,1012.82
2017-10-16T01:34:02.440Z,1012.85
2017-10-16T01:35:02.367Z,1012.80
2017-10-16T01:36:02.283Z,1012.81
2017-10-16T01:37:02.217Z,1012.80
2017-10-16T01:38:02.126Z,1012.80
2017-10-16T01:39:02.037Z,1012.78
2017-10-16T01:40:01.952Z,1012.82
2017-10-16T01:41:01.885Z,1012.80
2017-10-16T01:42:01.796Z,1012.78
2017-10-16T01:43:01.710Z,1012.75
2017-10-16T01:44:01.636Z,1012.80
2017-10-16T01:45:01.553Z,1012.82
2017-10-16T01:46:01.464Z,1012.78
2017-10-16T01:47:01.383Z,1012.82
2017-10-16T01:48:01.339Z,1012.80
2017-10-16T01:49:01.223Z,1012.79
2017-10-16T01:50:01.146Z,1012.77
2017-10-16T01:51:01.058Z,1012.76
2017-10-16T01:52:00.985Z,1012.76
2017-10-16T01:53:00.897Z,1012.77
2017-10-16T01:54:00.813Z,1012.79
2017-10-16T01:55:00.732Z,1012.79
2017-10-16T01:56:00.649Z,1012.83
2017-10-16T01:57:00.603Z,1012.84
2017-10-16T01:58:00.487Z,1012.83
2017-10-16T01:59:00.489Z,1012.79
2017-10-16T02:00:00.323Z,1012.78
2017-10-16T02:01:00.252Z,1012.78
2017-10-16T02:02:00.164Z,1012.75
2017-10-16T02:03:00.091Z,1012.76
2017-10-16T02:04:00.020Z,1012.78
2017-10-16T02:04:59.925Z,1012.76
2017-10-16T02:05:59.843Z,1012.77
2017-10-16T02:06:59.762Z,1012.77
2017-10-16T02:07:59.675Z,1012.76
2017-10-16T02:08:59.598Z,1012.74
2017-10-16T02:09:59.521Z,1012.75
2017-10-16T02:10:59.433Z,1012.70
2017-10-16T02:11:59.355Z,1012.69
2017-10-16T02:12:59.267Z,1012.73
2017-10-16T02:13:59.194Z,1012.68
2017-10-16T02:14:59.105Z,1012.66
2017-10-16T02:15:59.027Z,1012.66
2017-10-16T02:16:58.944Z,1012.66
2017-10-16T02:17:58.866Z,1012.66
2017-10-16T02:18:58.782Z,1012.70
2017-10-16T02:19:58.707Z,1012.67
2017-10-16T02:20:58.619Z,1012.64
2017-10-16T02:21:58.544Z,1012.68
2017-10-16T02:22:58.461Z,1012.68
2017-10-16T02:23:58.376Z,1012.65
2017-10-16T02:24:58.295Z,1012.67
2017-10-16T02:25:58.225Z,1012.68
2017-10-16T02:26:58.127Z,1012.65
2017-10-16T02:27:58.047Z,1012.66
2017-10-16T02:28:57.963Z,1012.71
2017-10-16T02:29:57.882Z,1012.67
2017-10-16T02:30:57.820Z,1012.66
2017-10-16T02:31:57.716Z,1012.67
2017-10-16T02:32:57.644Z,1012.63
2017-10-16T02:33:58.313Z,1012.67
2017-10-16T02:34:57.482Z,1012.62
2017-10-16T02:35:57.405Z,1012.66
2017-10-16T02:36:57.317Z,1012.61
2017-10-16T02:37:57.231Z,1012.59
2017-10-16T02:38:57.154Z,1012.59
2017-10-16T02:39:57.080Z,1012.57
2017-10-16T02:40:56.992Z,1012.54
2017-10-16T02:41:56.911Z,1012.51
2017-10-16T02:42:56.824Z,1012.54
2017-10-16T02:43:56.746Z,1012.53
2017-10-16T02:44:56.671Z,1012.54
2017-10-16T02:45:56.595Z,1012.52
2017-10-16T02:46:56.505Z,1012.53
2017-10-16T02:47:56.413Z,1012.51
2017-10-16T02:48:56.334Z,1012.49
2017-10-16T02:49:56.247Z,1012.50
2017-10-16T02:50:56.174Z,1012.49
2017-10-16T02:51:56.087Z,1012.51
2017-10-16T02:52:56.018Z,1012.45
2017-10-16T02:53:55.920Z,1012.48
2017-10-16T02:54:55.848Z,1012.46
2017-10-16T02:55:55.760Z,1012.46
2017-10-16T02:56:55.676Z,1012.42
2017-10-16T02:57:55.603Z,1012.43
2017-10-16T02:58:55.528Z,1012.45
2017-10-16T02:59:55.431Z,1012.43
2017-10-16T03:00:55.357Z,1012.48
2017-10-16T03:01:55.273Z,1012.49
2017-10-16T03:02:55.191Z,1012.47
2017-10-16T03:03:55.107Z,1012.49
2017-10-16T03:04:55.043Z,1012.46
2017-10-16T03:05:54.942Z,1012.44
2017-10-16T03:06:54.862Z,1012.43
2017-10-16T03:07:54.790Z,1012.39
2017-10-16T03:08:54.699Z,1012.44
2017-10-16T03:09:54.625Z,1012.40
2017-10-16T03:10:54.539Z,1012.39
2017-10-16T03:11:54.449Z,1012.43
2017-10-16T03:12:54.380Z,1012.42
2017-10-16T03:13:54.296Z,1012.42
2017-10-16T03:14:54.208Z,1012.44
2017-10-16T03:15:54.122Z,1012.44
2017-10-16T03:16:54.061Z,1012.41
2017-10-16T03:17:53.961Z,1012.41
2017-10-16T03:18:53.903Z,1012.44
2017-10-16T03:19:53.794Z,1012.42
2017-10-16T03:20:53.718Z,1012.43
2017-10-16T03:21:53.633Z,1012.43
2017-10-16T03:22:53.550Z,1012.43
2017-10-16T03:23:53.469Z,1012.46
2017-10-16T03:24:53.397Z,1012.41
2017-10-16T03:25:53.306Z,1012.38
2017-10-16T03:26:53.219Z,1012.40
2017-10-16T03:27:53.141Z,1012.44
2017-10-16T03:28:53.062Z,1012.43
2017-10-16T03:29:52.975Z,1012.40
2017-10-16T03:30:52.893Z,1012.39
2017-10-16T03:31:52.815Z,1012.41
2017-10-16T03:32:52.729Z,1012.43
2017-10-16T03:33:52.648Z,1012.40
2017-10-16T03:34:52.584Z,1012.38
2017-10-16T03:35:52.490Z,1012.34
2017-10-16T03:36:52.404Z,1012.39
2017-10-16T03:37:52.321Z,1012.36
2017-10-16T03:38:52.238Z,1012.32
2017-10-16T03:39:52.193Z,1012.35
2017-10-16T03:40:52.076Z,1012.34
2017-10-16T03:41:51.997Z,1012.39
2017-10-16T03:42:51.911Z,1012.38
2017-10-16T03:43:51.827Z,1012.44
2017-10-16T03:44:51.752Z,1012.40
2017-10-16T03:45:51.667Z,1012.46
2017-10-16T03:46:51.587Z,1012.50
2017-10-16T03:47:51.498Z,1012.46
2017-10-16T03:48:51.425Z,1012.47
2017-10-16T03:49:51.338Z,1012.46
2017-10-16T03:50:51.256Z,1012.46
2017-10-16T03:51:51.175Z,1012.48
2017-10-16T03:52:51.094Z,1012.42
2017-10-16T03:53:51.006Z,1012.44
2017-10-16T03:54:50.928Z,1012.51
2017-10-16T03:55:50.843Z,1012.52
2017-10-16T03:56:50.788Z,1012.49
2017-10-16T03:57:50.684Z,1012.54
2017-10-16T03:58:50.597Z,1012.57
2017-10-16T03:59:50.528Z,1012.58
2017-10-16T04:00:50.435Z,1012.57
2017-10-16T04:01:50.369Z,1012.59
2017-10-16T04:02:50.277Z,1012.57
2017-10-16T04:03:50.212Z,1012.59
2017-10-16T04:04:50.107Z,1012.57
2017-10-16T04:05:50.022Z,1012.62
2017-10-16T04:06:49.946Z,1012.63
2017-10-16T04:07:49.858Z,1012.62
2017-10-16T04:08:49.796Z,1012.63
2017-10-16T04:09:49.697Z,1012.65
2017-10-16T04:10:49.619Z,1012.61
2017-10-16T04:11:49.537Z,1012.65
2017-10-16T04:12:49.457Z,1012.65
2017-10-16T04:13:49.366Z,1012.67
2017-10-16T04:14:49.289Z,1012.65
2017-10-16T04:15:49.215Z,1012.65
2017-10-16T04:16:49.126Z,1012.68
2017-10-16T04:17:49.041Z,1012.65
2017-10-16T04:18:48.957Z,1012.65
2017-10-16T04:19:48.877Z,1012.68
2017-10-16T04:20:48.799Z,1012.67
2017-10-16T04:21:48.708Z,1012.67
2017-10-16T04:22:48.633Z,1012.67
2017-10-16T04:23:48.553Z,1012.68
2017-10-16T04:24:48.467Z,1012.69
2017-10-16T04:25:48.390Z,1012.73
2017-10-16T04:26:48.302Z,1012.69
2017-10-16T04:27:48.232Z,1012.68
2017-10-16T04:28:48.157Z,1012.72
2017-10-16T04:29:48.059Z,1012.67
2017-10-16T04:30:47.969Z,1012.69
2017-10-16T04:31:47.889Z,1012.72
2017-10-16T04:32:47.807Z,1012.72
2017-10-16T04:33:47.724Z,1012.74
2017-10-16T04:34:47.643Z,1012.74
2017-10-16T04:35:47.564Z,1012.77
2017-10-16T04:36:47.483Z,1012.76
2017-10-16T04:37:47.395Z,1012.79
2017-10-16T04:38:47.313Z,1012.76
2017-10-16T04:39:47.230Z,1012.79
2017-10-16T04:40:47.151Z,1012.80
2017-10-16T04:41:47.067Z,1012.78
2017-10-16T04:42:46.985Z,1012.77
2017-10-16T04:43:46.906Z,1012.77
2017-10-16T04:44:46.823Z,1012.76
2017-10-16T04:45:46.750Z,1012.73
2017-10-16T04:46:46.657Z,1012.73
2017-10-16T04:47:46.586Z,1012.71
2017-10-16T04:48:46.491Z,1012.74
2017-10-16T04:49:46.435Z,1012.74
2017-10-16T04:50:46.327Z,1012.71
2017-10-16T04:51:46.249Z,1012.76
2017-10-16T04:52:46.163Z,1012.73
2017-10-16T04:53:46.090Z,1012.75
2017-10-16T04:54:45.992Z,1012.72
2017-10-16T04:55:45.926Z,1012.72
2017-10-16T04:56:45.830Z,1012.72
2017-10-16T04:57:45.752Z,1012.70
2017-10-16T04:58:45.668Z,1012.69
2017-10-16T04:59:45.586Z,1012.68
2017-10-16T05:00:45.512Z,1012.68
2017-10-16T05:01:45.425Z,1012.67
2017-10-16T05:02:45.337Z,1012.65
2017-10-16T05:03:45.259Z,1012.64
2017-10-16T05:04:45.179Z,1012.63
2017-10-16T05:05:45.096Z,1012.61
2017-10-16T05:06:45.035Z,1012.64
2017-10-16T05:07:44.926Z,1012.63
2017-10-16T05:08:44.849Z,1012.66
2017-10-16T05:09:44.768Z,1012.66
2017-10-16T05:10:44.688Z,1012.73
2017-10-16T05:11:44.598Z,1012.69
2017-10-16T05:12:44.513Z,1012.75
2017-10-16T05:13:44.430Z,1012.74
2017-10-16T05:14:44.356Z,1012.74
2017-10-16T05:15:44.272Z,1012.69
2017-10-16T05:16:44.210Z,1012.70
2017-10-16T05:17:44.117Z,1012.70
2017-10-16T05:18:44.024Z,1012.72
2017-10-16T05:19:43.941Z,1012.75
2017-10-16T05:20:43.863Z,1012.67
2017-10-16T05:21:43.773Z,1012.71
2017-10-16T05:22:43.690Z,1012.73
2017-10-16T05:23:43.612Z,1012.72
2017-10-16T05:24:43.529Z,1012.74
2017-10-16T05:25:43.451Z,1012.67
2017-10-16T05:26:43.360Z,1012.68
2017-10-16T05:27:43.283Z,1012.64
2017-10-16T05:28:43.194Z,1012.67
2017-10-16T05:29:43.115Z,1012.67
2017-10-16T05:30:43.031Z,1012.68
2017-10-16T05:31:42.953Z,1012.67
2017-10-16T05:32:42.904Z,1012.68
2017-10-16T05:33:42.791Z,1012.72
2017-10-16T05:34:42.701Z,1012.71
2017-10-16T05:35:42.622Z,1012.69
2017-10-16T05:36:42.538Z,1012.71
2017-10-16T05:37:42.475Z,1012.69
2017-10-16T05:38:42.369Z,1012.72
2017-10-16T05:39:42.289Z,1012.71
2017-10-16T05:40:42.217Z,1012.74
2017-10-16T05:41:42.123Z,1012.77
2017-10-16T05:42:42.042Z,1012.76
2017-10-16T05:43:41.962Z,1012.77
2017-10-16T05:44:41.873Z,1012.80
2017-10-16T05:45:41.792Z,1012.80
2017-10-16T05:46:41.711Z,1012.79
2017-10-16T05:47:41.629Z,1012.77
2017-10-16T05:48:41.546Z,1012.75
2017-10-16T05:49:41.462Z,1012.80
2017-10-16T05:50:41.388Z,1012.83
2017-10-16T05:51:41.303Z,1012.80
2017-10-16T05:52:41.237Z,1012.84
2017-10-16T05:53:41.133Z,1012.83
2017-10-16T05:54:41.070Z,1012.86
2017-10-16T05:55:40.990Z,1012.87
2017-10-16T05:56:40.890Z,1012.87
2017-10-16T05:57:40.814Z,1012.84
2017-10-16T05:58:40.725Z,1012.83
2017-10-16T05:59:40.638Z,1012.82
2017-10-16T06:00:40.558Z,1012.86
2017-10-16T06:01:40.476Z,1012.83
2017-10-16T06:02:40.407Z,1012.79
2017-10-16T06:03:40.309Z,1012.83
2017-10-16T06:04:40.224Z,1012.84
2017-10-16T06:05:40.147Z,1012.88
2017-10-16T06:06:40.063Z,1012.86
2017-10-16T06:07:39.984Z,1012.89
2017-10-16T06:08:39.896Z,1012.90
2017-10-16T06:09:39.815Z,1012.91
2017-10-16T06:10:39.743Z,1012.93
2017-10-16T06:11:39.653Z,1012.90
2017-10-16T06:12:39.575Z,1012.92
2017-10-16T06:13:39.482Z,1012.90
2017-10-16T06:14:39.406Z,1012.91
2017-10-16T06:15:39.318Z,1012.88
2017-10-16T06:16:39.241Z,1012.88
2017-10-16T06:17:39.160Z,1012.90
2017-10-16T06:18:39.073Z,1012.89
2017-10-16T06:19:39.011Z,1012.93
2017-10-16T06:20:38.914Z,1012.92
2017-10-16T06:21:38.833Z,1012.96
2017-10-16T06:22:38.742Z,1012.96
2017-10-16T06:23:38.657Z,1013.00
2017-10-16T06:24:38.584Z,1013.03
2017-10-16T06:25:38.491Z,1013.09
2017-10-16T06:26:38.415Z,1013.09
2017-10-16T06:27:38.356Z,1013.17
2017-10-16T06:28:38.249Z,1013.18
2017-10-16T06:29:38.166Z,1013.22
2017-10-16T06:30:38.082Z,1013.22
2017-10-16T06:31:38.008Z,1013.24
2017-10-16T06:32:37.922Z,1013.25
2017-10-16T06:33:37.847Z,1013.22
2017-10-16T06:34:37.754Z,1013.27
2017-10-16T06:35:37.676Z,1013.27
2017-10-16T06:36:37.588Z,1013.22
2017-10-16T06:37:37.516Z,1013.27
2017-10-16T06:38:37.426Z,1013.24
2017-10-16T06:39:37.369Z,1013.27
2017-10-16T06:40:37.285Z,1013.26
2017-10-16T06:41:37.185Z,1013.25
2017-10-16T06:42:37.100Z,1013.23
2017-10-16T06:43:37.018Z,1013.20
2017-10-16T06:44:36.931Z,1013.25
2017-10-16T06:45:36.849Z,1013.19
2017-10-16T06:46:36.777Z,1013.24
2017-10-16T06:47:36.696Z,1013.24
2017-10-16T06:48:36.636Z,1013.26
2017-10-16T06:49:36.527Z,1013.27
2017-10-16T06:50:36.468Z,1013.23
2017-10-16T06:51:36.365Z,1013.23
2017-10-16T06:52:36.275Z,1013.19
2017-10-16T06:53:36.191Z,1013.17
2017-10-16T06:54:36.135Z,1013.17
2017-10-16T06:55:36.034Z,1013.15
2017-10-16T06:56:35.956Z,1013.17
2017-10-16T06:57:35.861Z,1013.16
2017-10-16T06:58:35.781Z,1013.17
2017-10-16T06:59:35.711Z,1013.17
2017-10-16T07:00:35.619Z,1013.17
2017-10-16T07:01:35.545Z,1013.23
2017-10-16T07:02:35.466Z,1013.21
2017-10-16T07:03:35.377Z,1013.28
2017-10-16T07:04:35.295Z,1013.27
2017-10-16T07:05:35.215Z,1013.25
2017-10-16T07:06:35.130Z,1013.27
2017-10-16T07:07:35.052Z,1013.27
2017-10-16T07:08:34.983Z,1013.28
2017-10-16T07:09:34.889Z,1013.36
2017-10-16T07:10:34.805Z,1013.36
2017-10-16T07:11:34.725Z,1013.36
2017-10-16T07:12:34.667Z,1013.40
2017-10-16T07:13:34.562Z,1013.44
2017-10-16T07:14:34.473Z,1013.49
2017-10-16T07:15:34.404Z,1013.54
2017-10-16T07:16:34.318Z,1013.53
2017-10-16T07:17:34.236Z,1013.57
2017-10-16T07:18:34.155Z,1013.58
2017-10-16T07:19:34.077Z,1013.60
2017-10-16T07:20:33.992Z,1013.58
2017-10-16T07:21:33.921Z,1013.60
2017-10-16T07:22:33.841Z,1013.61
2017-10-16T07:23:33.748Z,1013.64
2017-10-16T07:24:33.671Z,1013.65
2017-10-16T07:25:33.591Z,1013.69
2017-10-16T07:26:33.525Z,1013.74
2017-10-16T07:27:33.431Z,1013.90
2017-10-16T07:28:33.356Z,1013.93
2017-10-16T07:29:33.314Z,1013.84
2017-10-16T07:30:33.216Z,1013.93
2017-10-16T07:31:33.118Z,1013.98
2017-10-16T07:32:33.034Z,1014.01
2017-10-16T07:33:32.953Z,1014.01
2017-10-16T07:34:32.878Z,1014.13
2017-10-16T07:35:32.799Z,1014.17
2017-10-16T07:36:32.721Z,1014.18
2017-10-16T07:37:32.640Z,1014.03
2017-10-16T07:38:32.564Z,1014.04
2017-10-16T07:39:32.484Z,1014.00
2017-10-16T07:40:32.402Z,1014.06
2017-10-16T07:41:32.328Z,1014.19
2017-10-16T07:42:32.262Z,1014.11
2017-10-16T07:43:32.177Z,1014.12
2017-10-16T07:44:32.090Z,1014.28
2017-10-16T07:45:32.026Z,1014.33
2017-10-16T07:46:31.947Z,1014.34
2017-10-16T07:47:31.878Z,1014.37
2017-10-16T07:48:31.788Z,1014.41
2017-10-16T07:49:31.713Z,1014.37
2017-10-16T07:50:31.635Z,1014.41
2017-10-16T07:51:31.556Z,1014.39
2017-10-16T07:52:31.482Z,1014.38
2017-10-16T07:53:31.424Z,1014.42
2017-10-16T07:54:31.333Z,1014.44
2017-10-16T07:55:31.264Z,1014.43
2017-10-16T07:56:31.197Z,1014.50
2017-10-16T07:57:31.137Z,1014.49
2017-10-16T07:58:31.035Z,1014.49
2017-10-16T07:59:30.958Z,1014.52
2017-10-16T08:00:30.906Z,1014.50
2017-10-16T08:01:30.818Z,1014.49
2017-10-16T08:02:30.734Z,1014.47
2017-10-16T08:03:30.673Z,1014.53
2017-10-16T08:04:30.594Z,1014.51
2017-10-16T08:05:30.527Z,1014.51
2017-10-16T08:06:30.449Z,1014.56
2017-10-16T08:07:30.376Z,1014.56
2017-10-16T08:08:30.308Z,1014.57
2017-10-16T08:09:30.232Z,1014.52
2017-10-16T08:10:30.163Z,1014.57
2017-10-16T08:11:30.102Z,1014.57
2017-10-16T08:12:30.024Z,1014.53
2017-10-16T08:13:29.943Z,1014.52
2017-10-16T08:14:29.877Z,1014.49
2017-10-16T08:15:29.810Z,1014.54
2017-10-16T08:16:29.798Z,1014.55
2017-10-16T08:17:29.667Z,1014.53
2017-10-16T08:18:29.591Z,1014.55
2017-10-16T08:19:29.514Z,1014.54
2017-10-16T08:20:29.447Z,1014.53
2017-10-16T08:21:29.372Z,1014.52
2017-10-16T08:22:29.318Z,1014.51
2017-10-16T08:23:29.235Z,1014.50
2017-10-16T08:24:29.170Z,1014.52
2017-10-16T08:25:29.090Z,1014.54
2017-10-16T08:26:29.038Z,1014.54
2017-10-16T08:27:28.952Z,1014.53
2017-10-16T08:28:28.897Z,1014.51
2017-10-16T08:29:28.813Z,1014.49
2017-10-16T08:30:28.748Z,1014.52
2017-10-16T08:31:28.673Z,1014.46
2017-10-16T08:32:28.613Z,1014.52
2017-10-16T08:33:28.535Z,1014.52
2017-10-16T08:34:28.474Z,1014.54
2017-10-16T08:35:28.393Z,1014.54
2017-10-16T08:36:28.348Z,1014.58
2017-10-16T08:37:28.289Z,1014.55
2017-10-16T08:38:28.206Z,1014.59
2017-10-16T08:39:28.127Z,1014.59
2017-10-16T08:40:28.055Z,1014.54
2017-10-16T08:41:27.987Z,1014.53
2017-10-16T08:42:27.913Z,1014.51
2017-10-16T08:43:27.844Z,1014.52
2017-10-16T08:44:27.802Z,1014.53
2017-10-16T08:45:27.709Z,1014.56
2017-10-16T08:46:27.642Z,1014.50
2017-10-16T08:47:27.580Z,1014.53
2017-10-16T08:48:27.510Z,1014.50
2017-10-16T08:49:27.436Z,1014.52
2017-10-16T08:50:27.370Z,1014.49
2017-10-16T08:51:27.305Z,1014.50
2017-10-16T08:52:27.228Z,1014.49
2017-10-16T08:53:27.164Z,1014.46
2017-10-16T08:54:27.095Z,1014.51
2017-10-16T08:55:27.028Z,1014.48
2017-10-16T08:56:26.954Z,1014.53
2017-10-16T08:57:26.888Z,1014.51
2017-10-16T08:58:26.830Z,1014.50
2017-10-16T08:59:26.757Z,1014.49
2017-10-16T09:00:26.692Z,1014.53
2017-10-16T09:01:26.627Z,1014.51
2017-10-16T09:02:26.560Z,1014.56
2017-10-16T09:03:26.492Z,1014.57
2017-10-16T09:04:26.416Z,1014.55
2017-10-16T09:05:26.344Z,1014.55
2017-10-16T09:06:26.284Z,1014.59
2017-10-16T09:07:26.220Z,1014.60
2017-10-16T09:08:26.146Z,1014.62
2017-10-16T09:09:26.088Z,1014.63
2017-10-16T09:10:26.017Z,1014.62
2017-10-16T09:11:25.960Z,1014.62
2017-10-16T09:12:25.876Z,1014.62
2017-10-16T09:13:25.816Z,1014.68
2017-10-16T09:14:25.741Z,1014.65
2017-10-16T09:15:25.672Z,1014.66
2017-10-16T09:16:25.613Z,1014.66
2017-10-16T09:17:25.538Z,1014.67
2017-10-16T09:18:25.472Z,1014.66
2017-10-16T09:19:25.410Z,1014.67
2017-10-16T09:20:25.336Z,1014.64
2017-10-16T09:21:25.275Z,1014.62
2017-10-16T09:22:25.203Z,1014.59
2017-10-16T09:23:25.134Z,1014.60
2017-10-16T09:24:25.067Z,1014.61
2017-10-16T09:25:25.003Z,1014.69
2017-10-16T09:26:24.945Z,1014.67
2017-10-16T09:27:24.889Z,1014.70
2017-10-16T09:28:24.808Z,1014.72
2017-10-16T09:29:24.736Z,1014.73
2017-10-16T09:30:24.715Z,1014.68
2017-10-16T09:31:24.600Z,1014.65
2017-10-16T09:32:24.565Z,1014.71
2017-10-16T09:33:24.476Z,1014.68
2017-10-16T09:34:24.399Z,1014.69
2017-10-16T09:35:24.335Z,1014.68
2017-10-16T09:36:24.274Z,1014.64
2017-10-16T09:37:24.197Z,1014.62
2017-10-16T09:38:24.134Z,1014.63
2017-10-16T09:39:24.067Z,1014.62
2017-10-16T09:40:23.995Z,1014.63
2017-10-16T09:41:23.932Z,1014.64
2017-10-16T09:42:23.867Z,1014.63
2017-10-16T09:43:23.805Z,1014.64
2017-10-16T09:44:23.730Z,1014.62
2017-10-16T09:45:23.661Z,1014.63
2017-10-16T09:46:23.631Z,1014.59
2017-10-16T09:47:23.535Z,1014.61
2017-10-16T09:48:23.464Z,1014.59
2017-10-16T09:49:23.401Z,1014.65
2017-10-16T09:50:23.329Z,1014.67
2017-10-16T09:51:23.265Z,1014.73
2017-10-16T09:52:23.201Z,1014.72
2017-10-16T09:53:23.136Z,1014.71
2017-10-16T09:54:23.072Z,1014.77
2017-10-16T09:55:22.994Z,1014.77
2017-10-16T09:56:22.930Z,1014.72
2017-10-16T09:57:22.866Z,1014.74
2017-10-16T09:58:22.793Z,1014.57
2017-10-16T09:59:22.741Z,1014.47
2017-10-16T10:00:22.671Z,1014.34
2017-10-16T10:01:22.598Z,1014.27
2017-10-16T10:02:22.536Z,1014.12
2017-10-16T10:03:22.510Z,1014.06
2017-10-16T10:04:22.404Z,1014.00
2017-10-16T10:05:22.335Z,1014.04
2017-10-16T10:06:22.271Z,1014.03
2017-10-16T10:07:22.211Z,1014.09
2017-10-16T10:08:22.139Z,1014.07
2017-10-16T10:09:22.072Z,1014.09
2017-10-16T10:10:22.014Z,1014.11
2017-10-16T10:11:21.953Z,1014.08
2017-10-16T10:12:21.867Z,1014.09
2017-10-16T10:13:21.797Z,1014.08
2017-10-16T10:14:21.735Z,1014.08
2017-10-16T10:15:21.668Z,1014.08
2017-10-16T10:16:21.598Z,1014.06
2017-10-16T10:17:21.523Z,1014.07
2017-10-16T10:18:21.471Z,1014.10
2017-10-16T10:19:21.389Z,1014.11
2017-10-16T10:20:21.324Z,1014.10
2017-10-16T10:21:21.257Z,1014.06
2017-10-16T10:22:21.196Z,1014.09
2017-10-16T10:23:21.122Z,1014.07
2017-10-16T10:24:21.048Z,1014.01
2017-10-16T10:25:20.987Z,1014.00
2017-10-16T10:26:20.929Z,1014.00
2017-10-16T10:27:20.844Z,1013.96
2017-10-16T10:28:20.779Z,1013.98
2017-10-16T10:29:20.719Z,1013.91
2017-10-16T10:30:20.640Z,1013.97
2017-10-16T10:31:20.571Z,1013.92
2017-10-16T10:32:20.500Z,1013.87
2017-10-16T10:33:20.450Z,1013.91
2017-10-16T10:34:20.372Z,1013.90
2017-10-16T10:35:20.303Z,1013.86
2017-10-16T10:36:20.234Z,1013.90
2017-10-16T10:37:20.162Z,1013.88
2017-10-16T10:38:20.095Z,1013.90
2017-10-16T10:39:20.022Z,1013.89
2017-10-16T10:40:19.954Z,1013.83
2017-10-16T10:41:19.891Z,1013.89
2017-10-16T10:42:19.816Z,1013.87
2017-10-16T10:43:19.751Z,1013.86
2017-10-16T10:44:19.678Z,1013.88
2017-10-16T10:45:19.610Z,1013.84
2017-10-16T10:46:19.538Z,1013.88
2017-10-16T10:47:19.470Z,1013.88
2017-10-16T10:48:19.444Z,1013.92
2017-10-16T10:49:19.371Z,1013.90
2017-10-16T10:50:19.264Z,1013.98
2017-10-16T10:51:19.197Z,1014.32
2017-10-16T10:52:19.131Z,1014.62
2017-10-16T10:53:19.085Z,1014.97
2017-10-16T10:54:19.003Z,1015.32
2017-10-16T10:55:18.931Z,1015.71
2017-10-16T10:56:18.865Z,1016.10
2017-10-16T10:57:18.791Z,1016.47
2017-10-16T10:58:18.722Z,1016.64
2017-10-16T10:59:18.674Z,1016.78
2017-10-16T11:00:18.588Z,1017.02
2017-10-16T11:01:18.518Z,1017.04
2017-10-16T11:02:18.460Z,1016.84
2017-10-16T11:03:18.385Z,1016.86
2017-10-16T11:04:18.318Z,1016.90
2017-10-16T11:05:18.249Z,1016.86
2017-10-16T11:06:18.212Z,1016.67
2017-10-16T11:07:18.127Z,1016.55
2017-10-16T11:08:18.073Z,1016.23
2017-10-16T11:09:17.998Z,1016.63
2017-10-16T11:10:17.927Z,1017.45
2017-10-16T11:11:17.867Z,1017.39
2017-10-16T11:12:17.804Z,1017.28
2017-10-16T11:13:17.745Z,1017.13
2017-10-16T11:14:17.670Z,1016.95
2017-10-16T11:15:17.614Z,1016.80
2017-10-16T11:16:17.550Z,1016.66
2017-10-16T11:17:17.479Z,1016.56
2017-10-16T11:18:17.462Z,1016.46
2017-10-16T11:19:17.359Z,1016.31
2017-10-16T11:20:17.296Z,1016.20
2017-10-16T11:21:17.231Z,1016.04
2017-10-16T11:22:17.179Z,1015.91
2017-10-16T11:23:17.115Z,1015.77
2017-10-16T11:24:17.058Z,1015.69
2017-10-16T11:25:16.993Z,1015.53
2017-10-16T11:26:16.920Z,1015.40
2017-10-16T11:27:16.860Z,1015.26
2017-10-16T11:28:16.791Z,1015.12
2017-10-16T11:29:16.727Z,1014.93
2017-10-16T11:30:16.668Z,1014.78
2017-10-16T11:31:16.598Z,1014.60
2017-10-16T11:32:16.550Z,1014.46
2017-10-16T11:33:16.479Z,1014.31
2017-10-16T11:34:16.407Z,1014.18
2017-10-16T11:35:16.348Z,1014.07
2017-10-16T11:36:16.278Z,1013.93
2017-10-16T11:37:16.215Z,1013.85
2017-10-16T11:38:16.154Z,1013.73
2017-10-16T11:39:16.087Z,1013.71
2017-10-16T11:40:16.012Z,1013.64
2017-10-16T11:41:15.941Z,1013.52
2017-10-16T11:42:15.887Z,1013.42
2017-10-16T11:43:15.811Z,1013.35
2017-10-16T11:44:15.758Z,1013.32
2017-10-16T11:45:15.669Z,1013.34
2017-10-16T11:46:15.620Z,1013.28
2017-10-16T11:47:15.543Z,1013.29
2017-10-16T11:48:15.471Z,1013.28
2017-10-16T11:49:15.408Z,1013.34
2017-10-16T11:50:15.332Z,1013.30
2017-10-16T11:51:15.264Z,1013.29
2017-10-16T11:52:15.226Z,1013.28
2017-10-16T11:53:15.149Z,1013.29
2017-10-16T11:54:15.061Z,1013.27
2017-10-16T11:55:14.992Z,1013.29
2017-10-16T11:56:14.919Z,1013.27
2017-10-16T11:57:14.863Z,1013.24
2017-10-16T11:58:14.783Z,1013.28
2017-10-16T11:59:14.715Z,1013.24
2017-10-16T12:00:14.644Z,1013.25
2017-10-16T12:01:14.576Z,1013.25
2017-10-16T12:02:14.509Z,1013.24
2017-10-16T12:03:14.435Z,1013.21
2017-10-16T12:04:14.368Z,1013.16